Time;durP1;ratioP1;P1;durP2;ratioP2;P2;SDS_P1;SDS_P2;PMS_P1;PMS_P2;Temp;Humidity;BMP_temperature;BMP_pressure;BME280_temperature;BME280_humidity;BME280_pressure;Samples;Min_cycle;Max_cycle;Signal;HPM_P1;HPM_P2
2021/04/07 00:01:13;;;;;;;9.23;1.03;;;1.20;95.50;;;;;;5087738;28;20036;-78
2021/04/07 00:03:40;;;;;;;7.23;0.60;;;1.10;95.50;;;;;;5059371;28;20380;-77
2021/04/07 00:06:09;;;;;;;13.50;0.90;;;1.10;95.50;;;;;;5081593;28;20047;-76
2021/04/07 00:08:36;;;;;;;8.67;1.10;;;1.00;95.60;;;;;;5081161;28;20048;-76
2021/04/07 00:11:03;;;;;;;12.00;2.10;;;1.00;95.60;;;;;;5067660;28;20043;-76
2021/04/07 00:13:29;;;;;;;12.57;1.23;;;0.90;95.70;;;;;;5055842;28;20055;-77
2021/04/07 00:15:56;;;;;;;8.90;0.80;;;0.90;95.70;;;;;;5069928;28;20044;-76
2021/04/07 00:18:22;;;;;;;9.93;0.70;;;0.80;95.70;;;;;;5070536;28;20048;-76
2021/04/07 00:20:49;;;;;;;6.63;0.80;;;0.80;95.80;;;;;;5087962;28;21027;-77
2021/04/07 00:23:15;;;;;;;15.63;0.80;;;0.90;95.80;;;;;;5085015;28;20390;-77
2021/04/07 00:25:42;;;;;;;12.73;0.80;;;0.80;95.80;;;;;;5035455;28;20044;-76
2021/04/07 00:28:10;;;;;;;7.10;0.50;;;0.80;95.90;;;;;;5035110;28;20040;-78
2021/04/07 00:30:38;;;;;;;5.60;0.50;;;0.80;95.90;;;;;;5065600;28;20486;-76
2021/04/07 00:33:05;;;;;;;7.13;0.50;;;0.70;95.90;;;;;;5048615;28;20043;-76
2021/04/07 00:35:32;;;;;;;11.93;0.80;;;0.70;96.00;;;;;;5086878;28;20036;-76
2021/04/07 00:37:59;;;;;;;7.60;0.60;;;0.70;96.00;;;;;;5084210;28;20078;-77
2021/04/07 00:40:28;;;;;;;8.10;0.77;;;0.60;96.10;;;;;;5067796;28;20047;-76
2021/04/07 00:42:55;;;;;;;6.93;0.60;;;0.60;96.20;;;;;;5064647;28;20597;-76
2021/04/07 00:45:23;;;;;;;6.17;0.50;;;0.60;96.20;;;;;;5082610;28;20394;-77
2021/04/07 00:47:51;;;;;;;10.87;0.87;;;0.60;96.20;;;;;;5068106;28;20032;-77
2021/04/07 00:50:19;;;;;;;7.07;0.70;;;0.60;96.20;;;;;;5084756;28;20052;-77
2021/04/07 00:52:47;;;;;;;8.03;0.53;;;0.60;96.20;;;;;;5064629;28;20052;-76
2021/04/07 00:55:29;;;;;;;4.70;0.50;;;0.60;96.20;;;;;;5067172;28;20463;-76
2021/04/07 00:57:56;;;;;;;8.73;0.90;;;0.60;96.30;;;;;;5082200;28;20044;-77
2021/04/07 01:00:23;;;;;;;9.03;0.80;;;0.60;96.30;;;;;;5085073;28;20036;-77
2021/04/07 01:02:56;;;;;;;5.87;0.40;;;0.60;96.50;;;;;;5080300;28;20102;-77
2021/04/07 01:05:23;;;;;;;9.77;0.52;;;0.70;96.30;;;;;;5084054;28;20055;-76
2021/04/07 01:07:50;;;;;;;6.77;0.57;;;0.80;96.30;;;;;;5084400;28;20035;-77
2021/04/07 01:10:16;;;;;;;9.80;1.37;;;0.90;96.30;;;;;;5083767;28;20036;-77
2021/04/07 01:12:44;;;;;;;5.27;0.50;;;0.90;96.30;;;;;;5083026;28;20044;-77
2021/04/07 01:15:13;;;;;;;5.00;0.60;;;1.00;96.30;;;;;;5063834;28;20044;-76
2021/04/07 01:17:41;;;;;;;7.07;0.60;;;1.10;96.20;;;;;;5081524;28;20043;-78
2021/04/07 01:20:10;;;;;;;5.07;0.40;;;1.10;96.20;;;;;;5084809;28;20039;-78
2021/04/07 01:22:38;;;;;;;7.20;0.70;;;1.10;96.20;;;;;;5080220;28;20031;-79
2021/04/07 01:25:10;;;;;;;8.03;0.60;;;1.10;96.20;;;;;;5066214;28;20497;-80
2021/04/07 01:27:38;;;;;;;9.77;0.80;;;1.10;96.20;;;;;;5083152;28;20486;-79
2021/04/07 01:30:10;;;;;;;5.70;0.60;;;1.10;96.20;;;;;;5082540;28;20498;-78
2021/04/07 01:32:38;;;;;;;5.80;0.38;;;1.10;96.20;;;;;;5079457;28;20060;-76
2021/04/07 01:35:06;;;;;;;4.47;0.50;;;1.00;96.20;;;;;;5085718;28;20032;-78
2021/04/07 01:37:34;;;;;;;4.50;0.57;;;1.00;96.30;;;;;;5064375;28;20055;-78
2021/04/07 01:40:14;;;;;;;6.67;0.50;;;1.00;96.40;;;;;;5071670;28;20032;-76
2021/04/07 01:42:45;;;;;;;8.30;0.57;;;1.00;96.50;;;;;;5048092;28;20036;-77
2021/04/07 01:45:13;;;;;;;7.50;0.67;;;1.10;96.50;;;;;;5065262;28;20047;-76
2021/04/07 01:47:39;;;;;;;7.03;0.50;;;1.20;96.50;;;;;;5084658;28;20052;-76
2021/04/07 01:50:07;;;;;;;14.13;1.23;;;1.20;96.40;;;;;;5065449;28;20058;-77
2021/04/07 01:52:33;;;;;;;7.97;0.60;;;1.20;96.50;;;;;;5065919;28;20044;-78
2021/04/07 01:55:00;;;;;;;5.60;0.70;;;1.20;96.60;;;;;;5030614;28;20059;-76
2021/04/07 01:57:27;;;;;;;6.10;0.30;;;1.20;96.60;;;;;;5084728;28;20073;-76
2021/04/07 01:59:53;;;;;;;6.87;0.57;;;1.30;96.60;;;;;;5084014;28;20387;-78
2021/04/07 02:02:20;;;;;;;4.40;0.30;;;1.40;96.70;;;;;;5083110;28;20044;-78
2021/04/07 02:04:47;;;;;;;6.43;0.50;;;1.40;96.60;;;;;;5081840;28;20569;-79
2021/04/07 02:07:15;;;;;;;6.97;0.70;;;1.40;96.60;;;;;;5066021;28;20055;-77
2021/04/07 02:09:42;;;;;;;7.17;0.87;;;1.30;96.70;;;;;;5051517;28;20391;-76
2021/04/07 02:12:09;;;;;;;5.17;0.90;;;1.30;96.70;;;;;;5066195;28;20055;-76
2021/04/07 02:14:36;;;;;;;8.13;0.87;;;1.30;97.00;;;;;;5065573;28;20048;-76
2021/04/07 02:17:05;;;;;;;10.43;1.30;;;1.30;96.90;;;;;;5061775;28;20047;-76
2021/04/07 02:19:34;;;;;;;7.63;1.37;;;1.30;96.90;;;;;;5064335;28;20028;-76
2021/04/07 02:22:06;;;;;;;7.33;1.60;;;1.30;97.00;;;;;;5082389;28;20028;-77
2021/04/07 02:24:34;;;;;;;11.65;1.70;;;1.30;97.00;;;;;;5081924;28;20048;-78
2021/04/07 02:27:18;;;;;;;9.27;1.93;;;1.30;97.00;;;;;;5082597;28;20043;-76
2021/04/07 02:29:50;;;;;;;6.07;1.80;;;1.40;97.10;;;;;;5066164;28;20862;-76
2021/04/07 02:32:18;;;;;;;10.38;2.30;;;1.40;97.10;;;;;;5081888;28;20047;-77
2021/04/07 02:34:44;;;;;;;7.93;2.23;;;1.40;97.10;;;;;;5083199;28;20496;-77
2021/04/07 02:37:12;;;;;;;6.97;1.57;;;1.50;97.20;;;;;;5082890;28;20044;-77
2021/04/07 02:39:40;;;;;;;7.37;1.97;;;1.50;97.20;;;;;;5082854;28;20489;-77
2021/04/07 02:42:07;;;;;;;8.37;1.77;;;1.60;97.20;;;;;;5081486;28;20036;-76
2021/04/07 02:44:35;;;;;;;10.07;1.87;;;1.60;97.20;;;;;;5063538;28;20052;-79
2021/04/07 02:47:02;;;;;;;6.10;1.03;;;1.70;97.20;;;;;;5065526;28;20051;-78
2021/04/07 02:49:29;;;;;;;8.97;1.70;;;1.70;97.20;;;;;;5082025;28;20028;-77
2021/04/07 02:51:55;;;;;;;5.50;1.53;;;1.70;97.20;;;;;;5081663;28;20431;-76
2021/04/07 02:54:22;;;;;;;12.17;2.17;;;1.80;97.30;;;;;;5080477;28;20498;-76
2021/04/07 02:56:49;;;;;;;8.27;1.40;;;1.80;97.20;;;;;;5080184;28;20394;-77
2021/04/07 02:59:16;;;;;;;9.90;1.40;;;1.80;97.20;;;;;;5083772;28;20382;-78
2021/04/07 03:01:42;;;;;;;6.17;1.30;;;1.80;97.20;;;;;;5044146;28;20514;-76
2021/04/07 03:04:09;;;;;;;7.30;1.37;;;1.80;97.20;;;;;;5071622;28;20044;-76
2021/04/07 03:06:35;;;;;;;5.80;1.37;;;1.80;97.30;;;;;;5080793;28;20376;-76
2021/04/07 03:09:03;;;;;;;5.13;1.40;;;1.80;97.30;;;;;;5079780;28;20044;-76
2021/04/07 03:11:29;;;;;;;5.77;1.57;;;1.80;97.30;;;;;;5064426;28;20051;-76
2021/04/07 03:13:56;;;;;;;9.40;1.70;;;1.80;97.30;;;;;;5047234;28;20055;-76
2021/04/07 03:16:23;;;;;;;8.10;1.43;;;1.80;97.30;;;;;;5080817;28;20040;-76
2021/04/07 03:18:49;;;;;;;6.50;1.43;;;1.90;97.30;;;;;;5050071;28;20044;-76
2021/04/07 03:21:15;;;;;;;5.67;0.97;;;1.80;97.30;;;;;;5082549;28;20043;-77
2021/04/07 03:23:42;;;;;;;6.33;1.07;;;1.80;97.30;;;;;;5059909;28;20040;-77
2021/04/07 03:26:08;;;;;;;5.33;1.10;;;1.80;97.30;;;;;;5065201;28;20043;-78
2021/04/07 03:28:35;;;;;;;5.40;0.90;;;1.80;97.40;;;;;;5079562;28;20039;-78
2021/04/07 03:31:01;;;;;;;8.03;2.63;;;1.80;97.40;;;;;;5076410;28;20048;-78
2021/04/07 03:33:31;;;;;;;9.40;1.70;;;1.80;97.40;;;;;;5085952;28;20803;-78
2021/04/07 03:35:58;;;;;;;8.80;1.27;;;1.80;97.40;;;;;;5083054;28;20040;-79
2021/04/07 03:38:25;;;;;;;3.40;1.43;;;1.80;97.40;;;;;;5069378;28;20401;-78
2021/04/07 03:40:53;;;;;;;6.67;1.03;;;1.80;97.50;;;;;;5069026;28;20039;-78
2021/04/07 03:43:24;;;;;;;9.17;1.50;;;1.80;97.50;;;;;;5066629;28;20039;-78
2021/04/07 03:45:55;;;;;;;3.97;1.03;;;1.90;97.50;;;;;;5085178;28;20051;-78
2021/04/07 03:48:27;;;;;;;4.93;0.90;;;1.90;97.50;;;;;;5052823;28;20051;-76
2021/04/07 03:50:54;;;;;;;5.07;0.93;;;1.90;97.70;;;;;;5087543;28;20810;-78
2021/04/07 03:53:22;;;;;;;4.33;0.80;;;1.90;97.50;;;;;;5069876;28;20059;-78
2021/04/07 03:55:51;;;;;;;3.73;0.80;;;2.00;97.50;;;;;;5085199;28;20057;-76
2021/04/07 03:58:21;;;;;;;6.67;1.00;;;2.00;97.50;;;;;;5085043;28;20052;-76
2021/04/07 04:00:48;;;;;;;4.30;1.13;;;2.00;97.50;;;;;;5037020;28;20032;-76
2021/04/07 04:03:15;;;;;;;4.33;1.07;;;2.00;97.50;;;;;;5068873;28;20087;-78
2021/04/07 04:05:42;;;;;;;5.60;1.00;;;1.90;97.40;;;;;;5087562;28;20048;-78
2021/04/07 04:08:09;;;;;;;5.83;1.10;;;2.00;97.50;;;;;;5068862;28;20044;-78
2021/04/07 04:10:36;;;;;;;9.03;2.03;;;1.90;97.50;;;;;;5086785;28;20044;-78
2021/04/07 04:13:04;;;;;;;4.97;1.60;;;1.90;97.50;;;;;;5064968;28;20036;-78
2021/04/07 04:15:30;;;;;;;7.30;1.80;;;1.90;97.50;;;;;;5068874;28;20048;-78
2021/04/07 04:17:57;;;;;;;9.33;2.57;;;1.90;97.50;;;;;;5085163;28;20067;-76
2021/04/07 04:20:24;;;;;;;6.33;2.03;;;1.90;97.50;;;;;;5082288;28;20040;-76
2021/04/07 04:22:51;;;;;;;3.43;1.37;;;1.90;97.60;;;;;;5065303;28;20032;-76
2021/04/07 04:25:20;;;;;;;6.50;1.60;;;1.90;97.60;;;;;;5085580;28;20048;-76
2021/04/07 04:27:48;;;;;;;6.27;1.20;;;1.90;97.60;;;;;;5085299;28;20028;-77
2021/04/07 04:30:18;;;;;;;7.33;1.30;;;1.90;97.60;;;;;;5085337;28;20040;-76
2021/04/07 04:32:46;;;;;;;3.97;0.80;;;1.90;97.60;;;;;;5084007;28;20040;-76
2021/04/07 04:35:13;;;;;;;3.93;0.70;;;1.90;97.70;;;;;;5088059;28;20051;-76
2021/04/07 04:37:40;;;;;;;6.00;0.60;;;1.90;97.60;;;;;;5090566;28;20048;-75
2021/04/07 04:40:09;;;;;;;3.37;0.67;;;1.80;97.70;;;;;;5092989;28;20774;-76
2021/04/07 04:42:36;;;;;;;5.17;1.17;;;1.80;97.70;;;;;;5070933;28;20052;-75
2021/04/07 04:45:04;;;;;;;8.53;1.23;;;1.90;97.70;;;;;;5045793;28;20043;-75
2021/04/07 04:47:31;;;;;;;4.77;0.97;;;1.80;97.70;;;;;;5097327;28;20040;-76
2021/04/07 04:49:57;;;;;;;5.60;1.10;;;1.80;97.70;;;;;;5065339;28;20032;-75
2021/04/07 04:52:24;;;;;;;7.43;1.20;;;1.90;97.80;;;;;;5085162;28;20044;-76
2021/04/07 04:54:50;;;;;;;4.93;1.07;;;1.80;97.70;;;;;;5089428;28;20060;-75
2021/04/07 04:57:17;;;;;;;2.73;0.80;;;1.90;97.80;;;;;;5088407;28;20052;-75
2021/04/07 04:59:44;;;;;;;5.73;1.30;;;1.90;97.80;;;;;;5089517;28;20059;-76
2021/04/07 05:02:10;;;;;;;4.07;0.70;;;1.80;97.80;;;;;;5048972;28;20055;-76
2021/04/07 05:04:37;;;;;;;6.40;1.23;;;1.90;97.80;;;;;;5082770;28;20067;-76
2021/04/07 05:07:04;;;;;;;5.97;1.20;;;1.90;97.80;;;;;;5085009;28;20048;-75
2021/04/07 05:09:30;;;;;;;5.90;1.27;;;1.90;97.80;;;;;;5084160;28;20395;-76
2021/04/07 05:11:57;;;;;;;5.87;1.27;;;1.90;97.90;;;;;;5065143;28;20047;-76
2021/04/07 05:14:24;;;;;;;4.40;1.00;;;1.90;97.90;;;;;;5048664;28;20032;-76
2021/04/07 05:16:50;;;;;;;4.37;1.03;;;1.90;97.90;;;;;;5085022;28;20055;-78
2021/04/07 05:19:17;;;;;;;7.40;1.20;;;1.90;97.90;;;;;;5084764;28;20062;-78
2021/04/07 05:21:43;;;;;;;3.67;1.37;;;1.90;97.90;;;;;;5085308;28;20043;-77
2021/04/07 05:24:10;;;;;;;7.57;1.77;;;1.90;98.20;;;;;;5083415;28;20048;-76
2021/04/07 05:26:37;;;;;;;6.27;1.50;;;1.90;97.90;;;;;;5084472;28;20035;-77
2021/04/07 05:29:04;;;;;;;2.97;1.03;;;1.90;98.00;;;;;;5046260;28;20055;-77
2021/04/07 05:31:32;;;;;;;4.40;1.10;;;1.90;98.00;;;;;;5082947;28;20529;-77
2021/04/07 05:34:01;;;;;;;5.13;0.90;;;1.90;98.00;;;;;;5081142;28;20044;-79
2021/04/07 05:36:28;;;;;;;5.23;1.10;;;1.90;98.10;;;;;;5084580;28;20043;-78
2021/04/07 05:38:55;;;;;;;4.40;1.50;;;1.90;98.10;;;;;;5063951;28;20566;-78
2021/04/07 05:41:21;;;;;;;4.37;0.80;;;1.90;98.10;;;;;;5084884;28;20028;-77
2021/04/07 05:43:48;;;;;;;5.63;1.37;;;2.00;98.10;;;;;;5081498;28;20395;-77
2021/04/07 05:46:14;;;;;;;3.10;0.87;;;2.00;98.10;;;;;;5066379;28;20028;-78
2021/04/07 05:48:41;;;;;;;2.47;0.87;;;2.10;98.10;;;;;;5062341;28;20049;-78
2021/04/07 05:51:08;;;;;;;2.00;1.00;;;2.10;98.10;;;;;;5066627;28;20043;-78
2021/04/07 05:53:35;;;;;;;2.47;0.90;;;2.10;98.30;;;;;;5047921;28;20055;-78
2021/04/07 05:56:01;;;;;;;2.73;0.63;;;2.20;98.10;;;;;;5064589;28;20937;-76
2021/04/07 05:58:29;;;;;;;1.53;0.60;;;2.20;98.10;;;;;;5081277;28;20506;-75
2021/04/07 06:00:56;;;;;;;1.50;0.50;;;2.30;98.00;;;;;;5064271;28;20039;-75
2021/04/07 06:03:23;;;;;;;1.10;0.50;;;2.30;98.00;;;;;;5063266;28;20051;-75
2021/04/07 06:05:50;;;;;;;1.37;0.60;;;2.30;97.90;;;;;;5049523;28;20044;-75
2021/04/07 06:08:18;;;;;;;2.53;0.50;;;2.30;97.80;;;;;;5081189;28;20055;-75
2021/04/07 06:10:47;;;;;;;1.50;0.60;;;2.30;97.80;;;;;;5064633;28;20060;-75
2021/04/07 06:13:15;;;;;;;2.10;0.43;;;2.20;97.70;;;;;;5066250;28;20514;-75
2021/04/07 06:15:42;;;;;;;0.90;0.50;;;2.20;97.80;;;;;;5049362;28;20066;-75
2021/04/07 06:18:11;;;;;;;2.00;0.70;;;2.20;97.80;;;;;;5082825;28;20406;-75
2021/04/07 06:20:42;;;;;;;1.23;0.57;;;2.20;97.80;;;;;;5049680;28;20071;-75
2021/04/07 06:23:11;;;;;;;1.93;0.80;;;2.20;97.80;;;;;;5061262;28;20045;-75
2021/04/07 06:25:38;;;;;;;3.03;1.40;;;2.30;97.90;;;;;;5065812;28;20035;-75
2021/04/07 06:28:07;;;;;;;1.87;0.83;;;2.30;97.90;;;;;;5083073;28;20052;-75
2021/04/07 06:33:21;;;;;;;1.83;0.90;;;2.40;98.00;;;;;;5064881;28;20044;-75
2021/04/07 06:35:54;;;;;;;3.17;1.20;;;2.50;98.30;;;;;;5048635;28;20066;-75
2021/04/07 06:38:21;;;;;;;5.13;1.37;;;2.60;97.90;;;;;;5081101;28;20099;-75
2021/04/07 06:40:48;;;;;;;4.83;1.47;;;2.70;97.90;;;;;;5064137;28;20784;-75
2021/04/07 06:43:17;;;;;;;4.43;1.37;;;2.70;97.90;;;;;;5064231;28;20036;-75
2021/04/07 06:45:45;;;;;;;4.93;1.50;;;2.80;97.90;;;;;;5083898;28;20062;-76
2021/04/07 06:48:16;;;;;;;5.73;1.67;;;2.80;97.80;;;;;;5048107;28;20039;-75
2021/04/07 06:50:54;;;;;;;4.43;1.43;;;2.90;97.80;;;;;;5084232;28;20048;-76
2021/04/07 06:53:27;;;;;;;4.87;1.00;;;3.00;97.90;;;;;;5067146;28;20047;-75
2021/04/07 06:55:55;;;;;;;3.17;1.10;;;3.00;97.90;;;;;;5082764;28;20047;-76
2021/04/07 06:58:22;;;;;;;2.83;1.40;;;3.10;97.90;;;;;;5065761;28;20059;-76
2021/04/07 07:00:48;;;;;;;6.00;1.50;;;3.20;97.80;;;;;;5065681;28;20044;-76
2021/04/07 07:03:17;;;;;;;7.03;1.67;;;3.20;97.80;;;;;;5047354;28;20051;-76
2021/04/07 07:05:47;;;;;;;6.30;1.60;;;3.30;97.90;;;;;;5082353;28;20067;-76
2021/04/07 07:08:18;;;;;;;8.63;1.70;;;3.40;97.90;;;;;;5066261;28;20037;-76
2021/04/07 07:10:52;;;;;;;4.23;1.17;;;3.50;97.90;;;;;;5069538;28;20043;-76
2021/04/07 07:13:25;;;;;;;8.87;1.47;;;3.70;98.00;;;;;;5066445;28;20051;-76
2021/04/07 07:15:52;;;;;;;5.28;1.20;;;3.80;98.10;;;;;;5053018;28;20035;-78
2021/04/07 07:18:24;;;;;;;5.43;1.60;;;4.10;98.00;;;;;;5086474;28;20147;-77
2021/04/07 07:20:51;;;;;;;6.37;1.47;;;4.30;98.00;;;;;;5067565;28;20052;-77
2021/04/07 07:23:28;;;;;;;11.40;2.70;;;4.50;97.90;;;;;;5049955;28;20040;-77
2021/04/07 07:26:07;;;;;;;8.23;1.60;;;4.60;97.70;;;;;;5084494;28;20491;-77
2021/04/07 07:28:40;;;;;;;7.03;1.40;;;4.60;97.50;;;;;;5086800;28;20031;-77
2021/04/07 07:31:30;;;;;;;7.70;1.67;;;4.60;97.60;;;;;;5084015;28;20048;-77
2021/04/07 07:33:58;;;;;;;7.17;1.87;;;4.70;97.60;;;;;;5067522;28;20028;-77
2021/04/07 07:36:26;;;;;;;10.00;1.67;;;4.70;97.60;;;;;;5063370;28;20041;-77
2021/04/07 07:38:57;;;;;;;8.43;1.63;;;4.80;97.70;;;;;;5070136;28;20044;-77
2021/04/07 07:41:27;;;;;;;10.67;1.87;;;4.90;97.80;;;;;;5053102;28;20046;-83
2021/04/07 07:43:54;;;;;;;8.97;2.40;;;5.10;97.80;;;;;;5052999;28;20032;-81
2021/04/07 07:46:24;;;;;;;8.20;2.10;;;5.20;97.60;;;;;;5071014;28;20048;-82
2021/04/07 07:48:50;;;;;;;9.30;1.00;;;5.20;97.50;;;;;;5087209;28;20059;-82
2021/04/07 07:51:21;;;;;;;5.50;0.90;;;5.20;97.40;;;;;;5089080;28;20040;-82
2021/04/07 07:53:49;;;;;;;7.97;1.43;;;5.30;97.80;;;;;;5052659;28;20493;-81
2021/04/07 07:56:18;;;;;;;6.67;0.90;;;5.50;97.70;;;;;;5070018;28;20036;-82
2021/04/07 07:58:49;;;;;;;7.87;0.83;;;5.50;97.40;;;;;;5067327;28;20832;-80
2021/04/07 08:01:19;;;;;;;7.63;0.87;;;5.50;97.30;;;;;;5087567;28;20036;-80
2021/04/07 08:03:47;;;;;;;8.83;0.80;;;5.40;97.40;;;;;;5067714;28;20055;-80
2021/04/07 08:06:15;;;;;;;8.37;0.80;;;5.40;97.50;;;;;;5087825;28;20028;-79
2021/04/07 08:08:59;;;;;;;12.43;0.90;;;5.40;97.50;;;;;;5079897;28;20056;-80
2021/04/07 08:11:27;;;;;;;11.53;0.97;;;5.40;97.70;;;;;;5055507;28;20483;-87
2021/04/07 08:13:54;;;;;;;8.77;0.70;;;5.40;97.70;;;;;;5068626;28;20040;-77
2021/04/07 08:16:21;;;;;;;7.83;0.60;;;5.40;97.70;;;;;;5069453;28;20048;-79
2021/04/07 08:18:50;;;;;;;14.53;1.10;;;5.50;97.90;;;;;;5086818;28;20051;-79
2021/04/07 08:21:18;;;;;;;14.57;1.20;;;5.60;97.90;;;;;;5088106;28;20024;-80
2021/04/07 08:23:57;;;;;;;18.27;4.23;;;5.60;97.80;;;;;;5081275;28;20058;-79
2021/04/07 08:26:27;;;;;;;17.47;1.97;;;5.60;97.70;;;;;;5077815;28;20046;-79
2021/04/07 08:28:54;;;;;;;14.13;1.60;;;5.50;97.80;;;;;;5068866;28;20036;-79
2021/04/07 08:31:22;;;;;;;13.87;1.20;;;5.50;97.90;;;;;;5085988;28;20031;-80
2021/04/07 08:33:52;;;;;;;8.83;0.77;;;5.50;97.70;;;;;;5050465;28;20052;-80
2021/04/07 08:36:25;;;;;;;11.10;1.20;;;5.30;97.60;;;;;;5069281;28;20509;-77
2021/04/07 08:39:07;;;;;;;11.07;1.27;;;5.30;97.80;;;;;;5049352;28;20044;-77
2021/04/07 08:41:34;;;;;;;19.60;2.40;;;5.30;98.20;;;;;;5084455;28;20024;-76
2021/04/07 08:44:04;;;;;;;12.43;1.13;;;5.40;98.30;;;;;;5078679;28;20040;-75
2021/04/07 08:46:43;;;;;;;16.70;1.60;;;5.60;98.40;;;;;;5081392;28;20027;-76
2021/04/07 08:49:32;;;;;;;20.87;3.63;;;5.80;98.40;;;;;;5082690;28;20044;-76
2021/04/07 08:52:11;;;;;;;18.80;2.20;;;6.00;98.30;;;;;;5082809;28;20510;-79
2021/04/07 08:54:48;;;;;;;18.55;1.80;;;6.30;98.60;;;;;;5070525;28;20032;-82
2021/04/07 08:57:36;;;;;;;20.63;1.83;;;6.60;98.50;;;;;;5073296;28;20039;-79
2021/04/07 09:00:14;;;;;;;25.47;4.27;;;6.80;98.30;;;;;;5093898;28;20044;-79
2021/04/07 09:02:52;;;;;;;21.67;2.45;;;7.00;97.90;;;;;;5098966;28;20029;-80
2021/04/07 09:05:30;;;;;;;22.63;3.40;;;7.10;97.70;;;;;;5093294;28;20103;-80
2021/04/07 09:07:59;;;;;;;21.88;2.42;;;7.30;97.10;;;;;;5089259;28;20051;-80
2021/04/07 09:10:41;;;;;;;26.30;2.55;;;7.40;96.80;;;;;;5086208;28;20043;-79
2021/04/07 09:13:13;;;;;;;29.65;4.13;;;7.50;96.60;;;;;;5088901;28;20395;-76
2021/04/07 09:15:55;;;;;;;24.80;2.85;;;7.40;96.60;;;;;;5085790;28;20047;-76
2021/04/07 09:18:39;;;;;;;27.30;3.40;;;7.30;96.00;;;;;;5085387;28;20517;-76
2021/04/07 09:21:20;;;;;;;18.83;2.10;;;7.20;96.10;;;;;;5064440;28;20068;-76
2021/04/07 09:23:51;;;;;;;31.70;3.55;;;7.20;96.40;;;;;;5063483;28;20387;-75
2021/04/07 09:26:22;;;;;;;25.95;2.92;;;7.20;96.40;;;;;;5082114;28;20043;-76
2021/04/07 09:28:51;;;;;;;22.92;2.47;;;7.20;96.60;;;;;;5065668;28;20042;-76
2021/04/07 09:31:18;;;;;;;24.50;2.88;;;7.20;95.80;;;;;;5047822;28;20040;-76
2021/04/07 09:33:49;;;;;;;28.13;3.65;;;7.20;95.60;;;;;;5082668;28;20994;-76
2021/04/07 09:36:36;;;;;;;23.15;2.53;;;7.20;95.20;;;;;;5083988;28;20044;-76
2021/04/07 09:39:12;;;;;;;21.38;2.08;;;7.40;95.50;;;;;;5082618;28;20395;-79
2021/04/07 09:41:43;;;;;;;24.08;2.85;;;7.60;96.00;;;;;;5066833;28;20036;-80
2021/04/07 09:44:16;;;;;;;23.40;3.10;;;8.00;96.00;;;;;;5066564;28;20491;-80
2021/04/07 09:46:56;;;;;;;23.10;2.72;;;8.50;95.40;;;;;;5085380;28;20032;-80
2021/04/07 09:49:29;;;;;;;27.10;3.33;;;8.70;94.50;;;;;;5083255;28;20418;-80
2021/04/07 09:51:57;;;;;;;20.45;2.40;;;8.50;93.40;;;;;;5084021;28;20806;-79
2021/04/07 09:54:25;;;;;;;20.55;2.85;;;8.30;93.70;;;;;;5066313;28;20410;-80
2021/04/07 09:57:02;;;;;;;22.60;2.78;;;8.10;93.60;;;;;;5051497;28;20036;-80
2021/04/07 09:59:51;;;;;;;27.38;3.13;;;7.80;93.90;;;;;;5083683;28;20044;-79
2021/04/07 10:02:27;;;;;;;18.00;1.70;;;7.60;93.60;;;;;;5082802;28;20067;-80
2021/04/07 10:04:55;;;;;;;21.45;2.20;;;7.30;93.50;;;;;;5062091;28;20055;-80
2021/04/07 10:07:27;;;;;;;19.25;2.17;;;7.00;93.80;;;;;;5084603;28;21247;-78
2021/04/07 10:09:54;;;;;;;24.35;2.55;;;6.80;94.10;;;;;;5065223;28;20042;-78
2021/04/07 10:12:23;;;;;;;22.27;1.92;;;6.60;94.50;;;;;;5048395;28;20040;-80
2021/04/07 10:14:54;;;;;;;19.58;2.70;;;6.50;95.00;;;;;;5082628;28;20071;-80
2021/04/07 10:17:27;;;;;;;23.27;2.67;;;6.50;95.60;;;;;;5085646;28;20055;-79
2021/04/07 10:19:54;;;;;;;17.33;2.33;;;6.70;96.30;;;;;;5085650;28;20482;-80
2021/04/07 10:22:21;;;;;;;24.55;2.47;;;7.10;96.90;;;;;;5063781;28;20032;-79
2021/04/07 10:24:49;;;;;;;24.52;3.47;;;7.50;96.70;;;;;;5081966;28;20043;-79
2021/04/07 10:27:23;;;;;;;23.05;3.10;;;7.80;96.80;;;;;;5066211;28;20122;-80
2021/04/07 10:30:01;;;;;;;25.10;3.15;;;8.10;96.80;;;;;;5066473;28;20079;-80
2021/04/07 10:32:27;;;;;;;24.67;3.47;;;8.40;96.20;;;;;;5066221;28;20071;-78
2021/04/07 10:35:00;;;;;;;19.75;2.40;;;8.60;95.80;;;;;;5082507;28;20055;-79
2021/04/07 10:37:28;;;;;;;16.08;1.50;;;8.50;94.10;;;;;;5067834;28;20051;-79
2021/04/07 10:39:54;;;;;;;15.95;2.10;;;8.60;94.70;;;;;;5084318;28;20047;-79
2021/04/07 10:42:23;;;;;;;21.63;2.60;;;8.90;94.60;;;;;;5069084;28;20040;-79
2021/04/07 10:45:02;;;;;;;17.92;2.25;;;9.20;93.70;;;;;;5088953;28;20055;-79
2021/04/07 10:47:37;;;;;;;19.55;1.48;;;9.60;92.20;;;;;;5069136;28;20040;-80
2021/04/07 10:50:06;;;;;;;14.60;1.92;;;9.80;92.00;;;;;;5075081;28;20036;-79
2021/04/07 10:52:39;;;;;;;9.73;1.30;;;10.20;90.30;;;;;;5092098;28;20040;-81
2021/04/07 10:55:08;;;;;;;12.27;1.63;;;10.30;87.90;;;;;;5086301;28;20039;-80
2021/04/07 10:57:48;;;;;;;18.10;2.13;;;10.20;88.10;;;;;;5086099;28;20043;-80
2021/04/07 11:00:32;;;;;;;14.15;1.75;;;9.90;84.00;;;;;;5084100;28;20040;-76
2021/04/07 11:03:00;;;;;;;27.85;3.10;;;9.40;85.50;;;;;;5066660;28;20043;-77
2021/04/07 11:05:39;;;;;;;16.67;1.95;;;8.90;86.80;;;;;;5080951;28;20117;-76
2021/04/07 11:08:08;;;;;;;17.63;1.50;;;8.40;88.50;;;;;;5064851;28;20043;-79
2021/04/07 11:10:49;;;;;;;23.08;2.88;;;7.80;90.50;;;;;;5083607;28;20043;-75
2021/04/07 11:13:18;;;;;;;17.60;2.45;;;7.40;91.50;;;;;;5081716;28;20040;-76
2021/04/07 11:15:45;;;;;;;25.95;2.55;;;7.30;92.20;;;;;;5086095;28;20517;-77
2021/04/07 11:18:15;;;;;;;24.35;2.67;;;7.50;93.90;;;;;;5068756;28;20044;-76
2021/04/07 11:20:43;;;;;;;25.13;3.45;;;8.00;93.90;;;;;;5083257;28;20056;-76
2021/04/07 11:23:10;;;;;;;23.10;2.88;;;8.40;93.70;;;;;;5083827;28;20055;-76
2021/04/07 11:25:37;;;;;;;22.58;3.40;;;8.80;92.60;;;;;;5087340;28;20056;-78
2021/04/07 11:28:04;;;;;;;19.13;2.38;;;9.10;92.40;;;;;;5068998;28;20032;-79
2021/04/07 11:30:31;;;;;;;21.38;2.60;;;9.30;91.60;;;;;;5036877;28;20040;-79
2021/04/07 11:33:01;;;;;;;22.58;2.25;;;9.30;91.00;;;;;;5051461;28;20382;-78
2021/04/07 11:35:40;;;;;;;19.00;3.03;;;9.20;90.10;;;;;;5086280;28;20032;-77
2021/04/07 11:38:08;;;;;;;11.20;1.20;;;8.80;88.20;;;;;;5054512;28;20875;-78
2021/04/07 11:45:29;;;;;;;10.90;1.58;;;7.90;87.50;;;;;;5067906;28;20040;-81
2021/04/07 11:47:55;;;;;;;18.05;1.25;;;7.80;87.90;;;;;;5068303;28;20039;-78
2021/04/07 11:50:22;;;;;;;16.15;1.08;;;7.90;87.80;;;;;;5061943;28;20039;-76
2021/04/07 11:52:49;;;;;;;19.80;2.03;;;8.00;88.80;;;;;;5082644;28;20048;-77
2021/04/07 11:55:17;;;;;;;13.57;1.70;;;8.30;89.90;;;;;;5034000;28;20593;-77
2021/04/07 11:57:43;;;;;;;20.50;2.70;;;8.70;88.20;;;;;;5066300;28;20040;-76
2021/04/07 12:00:11;;;;;;;17.02;1.98;;;9.00;86.40;;;;;;5047317;28;20052;-76
2021/04/07 12:02:42;;;;;;;20.33;2.00;;;9.30;84.90;;;;;;5053881;28;20031;-76
2021/04/07 12:05:10;;;;;;;20.00;2.25;;;9.40;84.80;;;;;;5059849;28;20050;-76
2021/04/07 12:07:37;;;;;;;20.60;2.40;;;9.30;83.60;;;;;;5036913;28;20040;-76
2021/04/07 12:10:08;;;;;;;15.25;1.70;;;9.10;83.40;;;;;;5038178;28;20068;-76
2021/04/07 12:12:34;;;;;;;15.02;1.90;;;8.80;84.60;;;;;;5042305;28;20422;-76
2021/04/07 12:15:01;;;;;;;15.70;1.40;;;8.50;85.40;;;;;;5027078;28;20037;-76
2021/04/07 12:17:28;;;;;;;11.75;1.48;;;8.30;84.80;;;;;;5040805;28;20064;-76
2021/04/07 12:19:55;;;;;;;11.90;1.00;;;8.40;86.20;;;;;;5040729;28;20041;-77
2021/04/07 12:22:21;;;;;;;12.38;2.05;;;8.60;85.50;;;;;;5026685;28;20037;-78
2021/04/07 12:24:51;;;;;;;13.77;1.35;;;8.70;84.90;;;;;;5026373;28;20040;-77
2021/04/07 12:27:18;;;;;;;13.73;1.52;;;8.60;85.50;;;;;;5043473;28;20033;-77
2021/04/07 12:29:48;;;;;;;13.73;2.00;;;8.60;84.10;;;;;;5044379;28;20049;-78
2021/04/07 12:32:15;;;;;;;19.30;1.77;;;8.60;82.40;;;;;;5042252;28;20404;-78
2021/04/07 12:34:44;;;;;;;12.70;1.30;;;8.50;82.80;;;;;;5044988;28;20040;-77
2021/04/07 12:37:13;;;;;;;13.75;1.17;;;8.40;83.70;;;;;;5060201;28;20061;-77
2021/04/07 12:39:40;;;;;;;17.45;1.20;;;8.30;84.00;;;;;;5044212;28;20049;-77
2021/04/07 12:42:14;;;;;;;14.52;1.83;;;8.20;83.60;;;;;;5059803;28;20045;-77
2021/04/07 12:44:41;;;;;;;9.68;1.15;;;8.00;83.10;;;;;;5042720;28;20071;-79
2021/04/07 12:47:07;;;;;;;14.02;1.63;;;8.20;82.60;;;;;;5043963;28;20056;-78
2021/04/07 12:49:34;;;;;;;10.68;1.33;;;8.30;82.40;;;;;;5044324;28;20036;-87
2021/04/07 12:52:06;;;;;;;12.95;1.27;;;8.30;80.70;;;;;;5041108;28;20040;-85
2021/04/07 12:54:34;;;;;;;;;;;8.30;82.80;;;;;;5026202;28;20582;-85
2021/04/07 12:57:03;;;;;;;12.90;1.02;;;8.50;81.60;;;;;;5044903;28;19923;-79
2021/04/07 12:59:30;;;;;;;9.82;1.42;;;8.80;81.60;;;;;;5061249;28;20037;-78
2021/04/07 13:01:56;;;;;;;9.18;1.40;;;9.50;80.30;;;;;;5027864;28;20040;-79
2021/04/07 13:04:23;;;;;;;14.13;1.42;;;10.10;76.40;;;;;;5036361;28;20051;-78
2021/04/07 13:06:50;;;;;;;16.38;1.52;;;10.20;75.30;;;;;;5087249;28;20406;-83
2021/04/07 13:09:17;;;;;;;13.65;2.33;;;10.10;74.30;;;;;;5059757;28;20840;-80
2021/04/07 13:11:43;;;;;;;8.95;1.20;;;10.00;74.10;;;;;;5089808;28;20044;-80